sensor_id;sensor_type;location;lat;lon;timestamp;temperature;humidity
47414;DHT22;33163;0.000;0.000;2023-09-07T00:01:27;23.60;85.30
47414;DHT22;33163;0.000;0.000;2023-09-07T00:03:55;23.60;85.30
47414;DHT22;33163;0.000;0.000;2023-09-07T00:06:22;23.60;85.30
47414;DHT22;33163;0.000;0.000;2023-09-07T00:08:48;23.60;85.30
47414;DHT22;33163;0.000;0.000;2023-09-07T00:11:15;23.60;85.30
47414;DHT22;33163;0.000;0.000;2023-09-07T00:13:42;23.60;85.30
47414;DHT22;33163;0.000;0.000;2023-09-07T00:16:09;23.60;85.30
47414;DHT22;33163;0.000;0.000;2023-09-07T00:18:37;23.60;85.30
47414;DHT22;33163;0.000;0.000;2023-09-07T00:21:05;23.60;85.30
47414;DHT22;33163;0.000;0.000;2023-09-07T00:23:32;23.50;85.20
47414;DHT22;33163;0.000;0.000;2023-09-07T00:25:58;23.60;85.30
47414;DHT22;33163;0.000;0.000;2023-09-07T00:28:25;23.50;85.20
47414;DHT22;33163;0.000;0.000;2023-09-07T00:30:52;23.50;85.20
47414;DHT22;33163;0.000;0.000;2023-09-07T00:33:20;23.50;85.20
47414;DHT22;33163;0.000;0.000;2023-09-07T00:35:46;23.50;85.20
47414;DHT22;33163;0.000;0.000;2023-09-07T00:38:14;23.50;85.10
47414;DHT22;33163;0.000;0.000;2023-09-07T00:40:43;23.50;85.10
47414;DHT22;33163;0.000;0.000;2023-09-07T00:43:10;23.50;85.10
47414;DHT22;33163;0.000;0.000;2023-09-07T00:45:37;23.50;85.10
47414;DHT22;33163;0.000;0.000;2023-09-07T00:48:05;23.50;85.10
47414;DHT22;33163;0.000;0.000;2023-09-07T00:50:32;23.50;85.10
47414;DHT22;33163;0.000;0.000;2023-09-07T00:52:59;23.50;85.10
47414;DHT22;33163;0.000;0.000;2023-09-07T00:55:29;23.50;85.10
47414;DHT22;33163;0.000;0.000;2023-09-07T00:57:58;23.50;85.10
47414;DHT22;33163;0.000;0.000;2023-09-07T01:00:25;23.50;85.00
47414;DHT22;33163;0.000;0.000;2023-09-07T01:02:52;23.50;85.00
47414;DHT22;33163;0.000;0.000;2023-09-07T01:05:20;23.50;85.70
47414;DHT22;33163;0.000;0.000;2023-09-07T01:07:54;23.50;85.00
47414;DHT22;33163;0.000;0.000;2023-09-07T01:10:21;23.50;84.90
47414;DHT22;33163;0.000;0.000;2023-09-07T01:12:49;23.50;84.90
47414;DHT22;33163;0.000;0.000;2023-09-07T01:15:16;23.40;84.90
47414;DHT22;33163;0.000;0.000;2023-09-07T01:17:43;23.50;84.80
47414;DHT22;33163;0.000;0.000;2023-09-07T01:20:13;23.50;84.80
47414;DHT22;33163;0.000;0.000;2023-09-07T01:22:43;23.50;84.80
47414;DHT22;33163;0.000;0.000;2023-09-07T01:25:11;23.50;84.80
47414;DHT22;33163;0.000;0.000;2023-09-07T01:27:38;23.50;84.80
47414;DHT22;33163;0.000;0.000;2023-09-07T01:30:06;23.50;84.80
47414;DHT22;33163;0.000;0.000;2023-09-07T01:32:34;23.50;84.70
47414;DHT22;33163;0.000;0.000;2023-09-07T01:35:01;23.50;84.70
47414;DHT22;33163;0.000;0.000;2023-09-07T01:37:31;23.40;84.60
47414;DHT22;33163;0.000;0.000;2023-09-07T01:39:59;23.40;84.60
47414;DHT22;33163;0.000;0.000;2023-09-07T01:42:26;23.50;84.60
47414;DHT22;33163;0.000;0.000;2023-09-07T01:44:53;23.50;84.60
47414;DHT22;33163;0.000;0.000;2023-09-07T01:47:19;23.40;84.50
47414;DHT22;33163;0.000;0.000;2023-09-07T01:49:46;23.50;84.50
47414;DHT22;33163;0.000;0.000;2023-09-07T01:52:13;23.40;84.40
47414;DHT22;33163;0.000;0.000;2023-09-07T01:54:40;23.50;84.40
47414;DHT22;33163;0.000;0.000;2023-09-07T01:57:08;23.50;84.40
47414;DHT22;33163;0.000;0.000;2023-09-07T01:59:35;23.40;84.30
47414;DHT22;33163;0.000;0.000;2023-09-07T02:02:01;23.50;84.30
47414;DHT22;33163;0.000;0.000;2023-09-07T02:04:28;23.50;84.20
47414;DHT22;33163;0.000;0.000;2023-09-07T02:06:55;23.40;84.20
47414;DHT22;33163;0.000;0.000;2023-09-07T02:09:22;23.50;84.20
47414;DHT22;33163;0.000;0.000;2023-09-07T02:11:48;23.50;84.20
47414;DHT22;33163;0.000;0.000;2023-09-07T02:14:17;23.50;84.20
47414;DHT22;33163;0.000;0.000;2023-09-07T02:16:43;23.40;84.10
47414;DHT22;33163;0.000;0.000;2023-09-07T02:19:10;23.40;84.10
47414;DHT22;33163;0.000;0.000;2023-09-07T02:21:37;23.40;84.00
47414;DHT22;33163;0.000;0.000;2023-09-07T02:24:04;23.40;84.10
47414;DHT22;33163;0.000;0.000;2023-09-07T02:26:31;23.40;84.10
47414;DHT22;33163;0.000;0.000;2023-09-07T02:28:58;23.40;84.10
47414;DHT22;33163;0.000;0.000;2023-09-07T02:31:26;23.40;84.00
47414;DHT22;33163;0.000;0.000;2023-09-07T02:33:52;23.40;84.00
47414;DHT22;33163;0.000;0.000;2023-09-07T02:36:19;23.40;84.00
47414;DHT22;33163;0.000;0.000;2023-09-07T02:38:46;23.40;83.90
47414;DHT22;33163;0.000;0.000;2023-09-07T02:41:13;23.40;83.90
47414;DHT22;33163;0.000;0.000;2023-09-07T02:43:39;23.40;83.90
47414;DHT22;33163;0.000;0.000;2023-09-07T02:46:06;23.40;83.90
47414;DHT22;33163;0.000;0.000;2023-09-07T02:48:34;23.40;83.80
47414;DHT22;33163;0.000;0.000;2023-09-07T02:51:01;23.40;83.80
47414;DHT22;33163;0.000;0.000;2023-09-07T02:53:29;23.40;83.70
47414;DHT22;33163;0.000;0.000;2023-09-07T02:55:56;23.40;83.80
47414;DHT22;33163;0.000;0.000;2023-09-07T02:58:22;23.40;83.70
47414;DHT22;33163;0.000;0.000;2023-09-07T03:00:49;23.40;83.60
47414;DHT22;33163;0.000;0.000;2023-09-07T03:03:16;23.40;83.60
47414;DHT22;33163;0.000;0.000;2023-09-07T03:05:44;23.40;83.60
47414;DHT22;33163;0.000;0.000;2023-09-07T03:08:11;23.40;83.60
47414;DHT22;33163;0.000;0.000;2023-09-07T03:10:39;23.40;83.60
47414;DHT22;33163;0.000;0.000;2023-09-07T03:13:06;23.40;83.60
47414;DHT22;33163;0.000;0.000;2023-09-07T03:15:33;23.40;83.50
47414;DHT22;33163;0.000;0.000;2023-09-07T03:18:00;23.40;83.50
47414;DHT22;33163;0.000;0.000;2023-09-07T03:20:27;23.40;83.50
47414;DHT22;33163;0.000;0.000;2023-09-07T03:22:55;23.30;83.40
47414;DHT22;33163;0.000;0.000;2023-09-07T03:25:23;23.40;83.40
47414;DHT22;33163;0.000;0.000;2023-09-07T03:27:49;23.40;83.40
47414;DHT22;33163;0.000;0.000;2023-09-07T03:30:16;23.40;83.30
47414;DHT22;33163;0.000;0.000;2023-09-07T03:32:43;23.30;83.30
47414;DHT22;33163;0.000;0.000;2023-09-07T03:35:11;23.30;83.30
47414;DHT22;33163;0.000;0.000;2023-09-07T03:37:38;23.30;83.30
47414;DHT22;33163;0.000;0.000;2023-09-07T03:40:08;23.30;83.30
47414;DHT22;33163;0.000;0.000;2023-09-07T03:42:35;23.40;84.00
47414;DHT22;33163;0.000;0.000;2023-09-07T03:45:03;23.30;83.20
47414;DHT22;33163;0.000;0.000;2023-09-07T03:47:30;23.30;83.20
47414;DHT22;33163;0.000;0.000;2023-09-07T03:49:57;23.30;83.30
47414;DHT22;33163;0.000;0.000;2023-09-07T03:52:24;23.30;83.30
47414;DHT22;33163;0.000;0.000;2023-09-07T03:54:53;23.30;83.20
47414;DHT22;33163;0.000;0.000;2023-09-07T03:57:22;23.30;83.20
47414;DHT22;33163;0.000;0.000;2023-09-07T03:59:48;23.30;83.30
47414;DHT22;33163;0.000;0.000;2023-09-07T04:02:15;23.30;83.20
47414;DHT22;33163;0.000;0.000;2023-09-07T04:04:43;23.30;83.20
47414;DHT22;33163;0.000;0.000;2023-09-07T04:07:10;23.30;83.20
47414;DHT22;33163;0.000;0.000;2023-09-07T04:09:37;23.30;83.20
47414;DHT22;33163;0.000;0.000;2023-09-07T04:12:04;23.30;83.10
47414;DHT22;33163;0.000;0.000;2023-09-07T04:14:33;23.30;83.20
47414;DHT22;33163;0.000;0.000;2023-09-07T04:17:00;23.30;83.20
47414;DHT22;33163;0.000;0.000;2023-09-07T04:19:27;23.30;83.20
47414;DHT22;33163;0.000;0.000;2023-09-07T04:21:54;23.30;83.10
47414;DHT22;33163;0.000;0.000;2023-09-07T04:24:21;23.30;83.10
47414;DHT22;33163;0.000;0.000;2023-09-07T04:26:47;23.30;83.10
47414;DHT22;33163;0.000;0.000;2023-09-07T04:29:15;23.30;83.00
47414;DHT22;33163;0.000;0.000;2023-09-07T04:31:43;23.30;83.10
47414;DHT22;33163;0.000;0.000;2023-09-07T04:34:10;23.30;83.00
47414;DHT22;33163;0.000;0.000;2023-09-07T04:36:36;23.30;83.00
47414;DHT22;33163;0.000;0.000;2023-09-07T04:39:03;23.30;82.90
47414;DHT22;33163;0.000;0.000;2023-09-07T04:41:30;23.30;82.80
47414;DHT22;33163;0.000;0.000;2023-09-07T04:43:57;23.30;82.80
47414;DHT22;33163;0.000;0.000;2023-09-07T04:46:24;23.30;82.80
47414;DHT22;33163;0.000;0.000;2023-09-07T04:48:52;23.30;82.80
47414;DHT22;33163;0.000;0.000;2023-09-07T04:51:19;23.30;82.80
47414;DHT22;33163;0.000;0.000;2023-09-07T04:53:47;23.30;82.80
47414;DHT22;33163;0.000;0.000;2023-09-07T04:56:14;23.30;82.70
47414;DHT22;33163;0.000;0.000;2023-09-07T04:58:41;23.30;82.70
47414;DHT22;33163;0.000;0.000;2023-09-07T05:01:10;23.30;82.70
47414;DHT22;33163;0.000;0.000;2023-09-07T05:03:38;23.30;82.70
47414;DHT22;33163;0.000;0.000;2023-09-07T05:06:06;23.30;82.60
47414;DHT22;33163;0.000;0.000;2023-09-07T05:08:33;23.30;82.60
47414;DHT22;33163;0.000;0.000;2023-09-07T05:11:01;23.20;82.50
47414;DHT22;33163;0.000;0.000;2023-09-07T05:13:29;23.20;82.60
47414;DHT22;33163;0.000;0.000;2023-09-07T05:15:57;23.20;82.50
47414;DHT22;33163;0.000;0.000;2023-09-07T05:18:24;23.20;82.50
47414;DHT22;33163;0.000;0.000;2023-09-07T05:20:51;23.20;82.40
47414;DHT22;33163;0.000;0.000;2023-09-07T05:23:19;23.20;82.50
47414;DHT22;33163;0.000;0.000;2023-09-07T05:25:47;23.20;82.20
47414;DHT22;33163;0.000;0.000;2023-09-07T05:28:15;23.10;80.60
47414;DHT22;33163;0.000;0.000;2023-09-07T05:30:41;23.00;80.10
47414;DHT22;33163;0.000;0.000;2023-09-07T05:33:09;22.80;80.10
47414;DHT22;33163;0.000;0.000;2023-09-07T05:35:36;22.80;80.20
47414;DHT22;33163;0.000;0.000;2023-09-07T05:38:03;22.70;80.30
47414;DHT22;33163;0.000;0.000;2023-09-07T05:40:34;22.70;80.40
47414;DHT22;33163;0.000;0.000;2023-09-07T05:43:01;22.60;80.40
47414;DHT22;33163;0.000;0.000;2023-09-07T05:45:29;22.50;80.70
47414;DHT22;33163;0.000;0.000;2023-09-07T05:47:56;22.50;80.60
47414;DHT22;33163;0.000;0.000;2023-09-07T05:50:23;22.50;80.50
47414;DHT22;33163;0.000;0.000;2023-09-07T05:52:49;22.40;80.30
47414;DHT22;33163;0.000;0.000;2023-09-07T05:55:16;22.40;80.60
47414;DHT22;33163;0.000;0.000;2023-09-07T05:57:44;22.40;81.00
47414;DHT22;33163;0.000;0.000;2023-09-07T06:00:12;22.40;81.20
47414;DHT22;33163;0.000;0.000;2023-09-07T06:02:40;22.30;81.20
47414;DHT22;33163;0.000;0.000;2023-09-07T06:05:07;22.30;81.50
47414;DHT22;33163;0.000;0.000;2023-09-07T06:07:35;22.40;81.60
47414;DHT22;33163;0.000;0.000;2023-09-07T06:10:02;22.40;81.70
47414;DHT22;33163;0.000;0.000;2023-09-07T06:12:30;22.40;81.80
47414;DHT22;33163;0.000;0.000;2023-09-07T06:14:59;22.50;81.80
47414;DHT22;33163;0.000;0.000;2023-09-07T06:17:27;22.50;82.00
47414;DHT22;33163;0.000;0.000;2023-09-07T06:19:54;22.50;82.00
47414;DHT22;33163;0.000;0.000;2023-09-07T06:22:21;22.60;82.10
47414;DHT22;33163;0.000;0.000;2023-09-07T06:24:49;22.60;82.20
47414;DHT22;33163;0.000;0.000;2023-09-07T06:27:15;22.60;82.20
47414;DHT22;33163;0.000;0.000;2023-09-07T06:29:42;22.70;82.20
47414;DHT22;33163;0.000;0.000;2023-09-07T06:32:11;22.70;82.20
47414;DHT22;33163;0.000;0.000;2023-09-07T06:34:37;22.80;82.30
47414;DHT22;33163;0.000;0.000;2023-09-07T06:37:04;22.80;82.40
47414;DHT22;33163;0.000;0.000;2023-09-07T06:39:31;22.80;82.50
47414;DHT22;33163;0.000;0.000;2023-09-07T06:41:58;22.90;82.60
47414;DHT22;33163;0.000;0.000;2023-09-07T06:44:25;22.90;82.70
47414;DHT22;33163;0.000;0.000;2023-09-07T06:46:52;22.90;82.60
47414;DHT22;33163;0.000;0.000;2023-09-07T06:49:20;22.90;82.70
47414;DHT22;33163;0.000;0.000;2023-09-07T06:51:47;22.90;82.70
47414;DHT22;33163;0.000;0.000;2023-09-07T06:54:13;23.00;83.00
47414;DHT22;33163;0.000;0.000;2023-09-07T06:56:40;23.00;83.10
47414;DHT22;33163;0.000;0.000;2023-09-07T06:59:07;23.00;83.00
47414;DHT22;33163;0.000;0.000;2023-09-07T07:01:34;23.00;82.80
47414;DHT22;33163;0.000;0.000;2023-09-07T07:04:01;23.00;82.70
47414;DHT22;33163;0.000;0.000;2023-09-07T07:06:29;23.00;82.80
47414;DHT22;33163;0.000;0.000;2023-09-07T07:08:55;23.00;82.90
47414;DHT22;33163;0.000;0.000;2023-09-07T07:11:22;23.10;82.90
47414;DHT22;33163;0.000;0.000;2023-09-07T07:13:49;23.10;82.90
47414;DHT22;33163;0.000;0.000;2023-09-07T07:16:16;23.10;82.90
47414;DHT22;33163;0.000;0.000;2023-09-07T07:18:43;23.10;82.90
47414;DHT22;33163;0.000;0.000;2023-09-07T07:21:10;23.10;82.80
47414;DHT22;33163;0.000;0.000;2023-09-07T07:23:38;23.10;82.80
47414;DHT22;33163;0.000;0.000;2023-09-07T07:26:05;23.10;82.90
47414;DHT22;33163;0.000;0.000;2023-09-07T07:28:32;23.20;83.10
47414;DHT22;33163;0.000;0.000;2023-09-07T07:30:58;23.20;83.00
47414;DHT22;33163;0.000;0.000;2023-09-07T07:33:25;23.20;82.90
47414;DHT22;33163;0.000;0.000;2023-09-07T07:35:52;23.30;82.80
47414;DHT22;33163;0.000;0.000;2023-09-07T07:38:19;23.30;82.80
47414;DHT22;33163;0.000;0.000;2023-09-07T07:40:48;23.30;82.70
47414;DHT22;33163;0.000;0.000;2023-09-07T07:43:16;23.30;82.70
47414;DHT22;33163;0.000;0.000;2023-09-07T07:45:42;23.30;82.70
47414;DHT22;33163;0.000;0.000;2023-09-07T07:48:09;23.30;82.70
47414;DHT22;33163;0.000;0.000;2023-09-07T07:50:37;23.40;82.70
47414;DHT22;33163;0.000;0.000;2023-09-07T07:53:05;23.40;82.60
47414;DHT22;33163;0.000;0.000;2023-09-07T07:55:34;23.40;82.60
47414;DHT22;33163;0.000;0.000;2023-09-07T07:58:05;23.50;82.50
47414;DHT22;33163;0.000;0.000;2023-09-07T08:00:33;23.40;82.50
47414;DHT22;33163;0.000;0.000;2023-09-07T08:03:00;23.50;82.50
47414;DHT22;33163;0.000;0.000;2023-09-07T08:05:27;23.50;82.40
47414;DHT22;33163;0.000;0.000;2023-09-07T08:07:54;23.50;82.40
47414;DHT22;33163;0.000;0.000;2023-09-07T08:10:21;23.50;82.40
47414;DHT22;33163;0.000;0.000;2023-09-07T08:12:48;23.60;82.40
47414;DHT22;33163;0.000;0.000;2023-09-07T08:15:19;23.60;82.40
47414;DHT22;33163;0.000;0.000;2023-09-07T08:17:47;23.60;82.40
47414;DHT22;33163;0.000;0.000;2023-09-07T08:20:14;23.60;82.40
47414;DHT22;33163;0.000;0.000;2023-09-07T08:22:41;23.70;82.40
47414;DHT22;33163;0.000;0.000;2023-09-07T08:25:09;23.70;83.00
47414;DHT22;33163;0.000;0.000;2023-09-07T08:27:35;23.70;82.30
47414;DHT22;33163;0.000;0.000;2023-09-07T08:30:03;23.70;82.30
47414;DHT22;33163;0.000;0.000;2023-09-07T08:32:33;23.70;82.20
47414;DHT22;33163;0.000;0.000;2023-09-07T08:35:00;23.70;82.20
47414;DHT22;33163;0.000;0.000;2023-09-07T08:37:27;23.80;82.20
47414;DHT22;33163;0.000;0.000;2023-09-07T08:39:55;23.80;82.20
47414;DHT22;33163;0.000;0.000;2023-09-07T08:42:23;23.80;82.20
47414;DHT22;33163;0.000;0.000;2023-09-07T08:44:51;23.80;82.20
47414;DHT22;33163;0.000;0.000;2023-09-07T08:47:20;23.90;82.20
47414;DHT22;33163;0.000;0.000;2023-09-07T08:49:48;23.90;82.20
47414;DHT22;33163;0.000;0.000;2023-09-07T08:52:16;23.90;82.10
47414;DHT22;33163;0.000;0.000;2023-09-07T08:54:45;23.90;82.00
47414;DHT22;33163;0.000;0.000;2023-09-07T08:57:12;23.90;82.00
47414;DHT22;33163;0.000;0.000;2023-09-07T08:59:40;23.90;82.00
47414;DHT22;33163;0.000;0.000;2023-09-07T09:02:09;24.00;82.10
47414;DHT22;33163;0.000;0.000;2023-09-07T09:04:36;23.90;82.10
47414;DHT22;33163;0.000;0.000;2023-09-07T09:07:05;24.00;82.10
47414;DHT22;33163;0.000;0.000;2023-09-07T09:09:32;24.00;82.10
47414;DHT22;33163;0.000;0.000;2023-09-07T09:12:07;24.00;82.10
47414;DHT22;33163;0.000;0.000;2023-09-07T09:14:34;24.00;82.10
47414;DHT22;33163;0.000;0.000;2023-09-07T09:17:01;24.00;82.00
47414;DHT22;33163;0.000;0.000;2023-09-07T09:19:31;24.00;82.10
47414;DHT22;33163;0.000;0.000;2023-09-07T09:21:58;24.10;82.10
47414;DHT22;33163;0.000;0.000;2023-09-07T09:24:26;24.10;82.10
47414;DHT22;33163;0.000;0.000;2023-09-07T09:26:53;24.00;81.90
47414;DHT22;33163;0.000;0.000;2023-09-07T09:29:22;24.10;82.00
47414;DHT22;33163;0.000;0.000;2023-09-07T09:31:51;24.10;82.10
47414;DHT22;33163;0.000;0.000;2023-09-07T09:34:18;24.10;82.10
47414;DHT22;33163;0.000;0.000;2023-09-07T09:36:45;24.10;82.10
47414;DHT22;33163;0.000;0.000;2023-09-07T09:39:21;24.10;82.00
47414;DHT22;33163;0.000;0.000;2023-09-07T09:41:50;24.20;82.00
47414;DHT22;33163;0.000;0.000;2023-09-07T09:44:17;24.20;82.00
47414;DHT22;33163;0.000;0.000;2023-09-07T09:46:47;24.20;81.90
47414;DHT22;33163;0.000;0.000;2023-09-07T09:49:15;24.20;81.80
47414;DHT22;33163;0.000;0.000;2023-09-07T09:51:43;24.20;82.00
47414;DHT22;33163;0.000;0.000;2023-09-07T09:54:12;24.20;81.90
47414;DHT22;33163;0.000;0.000;2023-09-07T09:56:39;24.20;81.90
47414;DHT22;33163;0.000;0.000;2023-09-07T09:59:07;24.20;81.90
47414;DHT22;33163;0.000;0.000;2023-09-07T10:01:39;24.20;81.90
47414;DHT22;33163;0.000;0.000;2023-09-07T10:04:09;24.30;81.90
47414;DHT22;33163;0.000;0.000;2023-09-07T10:06:37;24.30;81.90
47414;DHT22;33163;0.000;0.000;2023-09-07T10:09:05;24.30;81.80
47414;DHT22;33163;0.000;0.000;2023-09-07T10:11:37;24.30;81.80
47414;DHT22;33163;0.000;0.000;2023-09-07T10:14:05;24.30;81.80
47414;DHT22;33163;0.000;0.000;2023-09-07T10:16:43;24.30;81.80
47414;DHT22;33163;0.000;0.000;2023-09-07T10:19:16;24.30;81.80
47414;DHT22;33163;0.000;0.000;2023-09-07T10:21:43;24.30;81.80
47414;DHT22;33163;0.000;0.000;2023-09-07T10:24:10;24.30;81.80
47414;DHT22;33163;0.000;0.000;2023-09-07T10:26:37;24.30;81.80
47414;DHT22;33163;0.000;0.000;2023-09-07T10:29:04;24.40;81.90
47414;DHT22;33163;0.000;0.000;2023-09-07T10:31:31;24.30;81.70
47414;DHT22;33163;0.000;0.000;2023-09-07T10:34:09;24.40;81.80
47414;DHT22;33163;0.000;0.000;2023-09-07T10:36:37;24.40;81.80
47414;DHT22;33163;0.000;0.000;2023-09-07T10:39:05;24.40;82.50
47414;DHT22;33163;0.000;0.000;2023-09-07T10:41:41;24.40;81.80
47414;DHT22;33163;0.000;0.000;2023-09-07T10:44:08;24.40;81.80
47414;DHT22;33163;0.000;0.000;2023-09-07T10:46:37;24.40;81.80
47414;DHT22;33163;0.000;0.000;2023-09-07T10:49:06;24.40;81.80
47414;DHT22;33163;0.000;0.000;2023-09-07T10:51:40;24.40;81.80
47414;DHT22;33163;0.000;0.000;2023-09-07T10:54:13;24.40;81.90
47414;DHT22;33163;0.000;0.000;2023-09-07T10:56:42;24.40;81.90
47414;DHT22;33163;0.000;0.000;2023-09-07T10:59:09;24.40;81.80
47414;DHT22;33163;0.000;0.000;2023-09-07T11:01:36;24.50;81.90
47414;DHT22;33163;0.000;0.000;2023-09-07T11:04:03;24.50;81.80
47414;DHT22;33163;0.000;0.000;2023-09-07T11:06:31;24.50;81.80
47414;DHT22;33163;0.000;0.000;2023-09-07T11:09:01;24.50;81.80
47414;DHT22;33163;0.000;0.000;2023-09-07T11:11:31;24.50;81.80
47414;DHT22;33163;0.000;0.000;2023-09-07T11:13:58;24.50;81.70
47414;DHT22;33163;0.000;0.000;2023-09-07T11:16:26;24.50;81.70
47414;DHT22;33163;0.000;0.000;2023-09-07T11:18:52;24.50;81.70
47414;DHT22;33163;0.000;0.000;2023-09-07T11:21:20;24.50;81.70
47414;DHT22;33163;0.000;0.000;2023-09-07T11:23:46;24.60;81.70
47414;DHT22;33163;0.000;0.000;2023-09-07T11:26:15;24.60;81.70
47414;DHT22;33163;0.000;0.000;2023-09-07T11:28:45;24.60;81.60
47414;DHT22;33163;0.000;0.000;2023-09-07T11:31:12;24.50;81.50
47414;DHT22;33163;0.000;0.000;2023-09-07T11:33:41;24.60;81.50
47414;DHT22;33163;0.000;0.000;2023-09-07T11:36:07;24.60;81.50
47414;DHT22;33163;0.000;0.000;2023-09-07T11:38:37;24.60;81.50
47414;DHT22;33163;0.000;0.000;2023-09-07T11:41:04;24.60;81.50
47414;DHT22;33163;0.000;0.000;2023-09-07T11:43:32;24.60;81.50
47414;DHT22;33163;0.000;0.000;2023-09-07T11:45:59;24.60;81.50
47414;DHT22;33163;0.000;0.000;2023-09-07T11:48:29;24.60;81.50
47414;DHT22;33163;0.000;0.000;2023-09-07T11:50:57;24.60;81.50
47414;DHT22;33163;0.000;0.000;2023-09-07T11:53:24;24.60;81.50
47414;DHT22;33163;0.000;0.000;2023-09-07T11:55:51;24.60;81.40
47414;DHT22;33163;0.000;0.000;2023-09-07T11:58:18;24.60;81.50
47414;DHT22;33163;0.000;0.000;2023-09-07T12:00:47;24.60;81.50
47414;DHT22;33163;0.000;0.000;2023-09-07T12:03:15;24.60;81.50
47414;DHT22;33163;0.000;0.000;2023-09-07T12:05:41;24.60;81.60
47414;DHT22;33163;0.000;0.000;2023-09-07T12:08:09;24.60;81.60
47414;DHT22;33163;0.000;0.000;2023-09-07T12:10:36;24.60;81.70
47414;DHT22;33163;0.000;0.000;2023-09-07T12:13:03;24.60;81.70
47414;DHT22;33163;0.000;0.000;2023-09-07T12:15:30;24.60;81.80
47414;DHT22;33163;0.000;0.000;2023-09-07T12:17:58;24.60;81.80
47414;DHT22;33163;0.000;0.000;2023-09-07T12:20:26;24.50;81.80
47414;DHT22;33163;0.000;0.000;2023-09-07T12:22:53;24.50;81.80
47414;DHT22;33163;0.000;0.000;2023-09-07T12:25:20;24.50;81.80
47414;DHT22;33163;0.000;0.000;2023-09-07T12:27:47;24.50;81.90
47414;DHT22;33163;0.000;0.000;2023-09-07T12:30:16;24.50;81.90
47414;DHT22;33163;0.000;0.000;2023-09-07T12:32:44;24.50;82.10
47414;DHT22;33163;0.000;0.000;2023-09-07T12:35:12;24.40;82.10
47414;DHT22;33163;0.000;0.000;2023-09-07T12:37:40;24.50;82.10
47414;DHT22;33163;0.000;0.000;2023-09-07T12:40:09;24.40;82.10
47414;DHT22;33163;0.000;0.000;2023-09-07T12:42:40;24.40;82.10
47414;DHT22;33163;0.000;0.000;2023-09-07T12:45:09;24.40;82.10
47414;DHT22;33163;0.000;0.000;2023-09-07T12:47:37;24.40;82.20
47414;DHT22;33163;0.000;0.000;2023-09-07T12:50:05;24.40;82.30
47414;DHT22;33163;0.000;0.000;2023-09-07T12:52:34;24.40;82.30
47414;DHT22;33163;0.000;0.000;2023-09-07T12:55:03;24.40;82.30
47414;DHT22;33163;0.000;0.000;2023-09-07T12:57:30;24.40;82.30
47414;DHT22;33163;0.000;0.000;2023-09-07T12:59:57;24.40;83.00
47414;DHT22;33163;0.000;0.000;2023-09-07T13:02:25;24.40;82.30
47414;DHT22;33163;0.000;0.000;2023-09-07T13:04:54;24.40;82.20
47414;DHT22;33163;0.000;0.000;2023-09-07T13:07:21;24.40;82.20
47414;DHT22;33163;0.000;0.000;2023-09-07T13:09:49;24.40;82.20
47414;DHT22;33163;0.000;0.000;2023-09-07T13:12:17;24.40;82.20
47414;DHT22;33163;0.000;0.000;2023-09-07T13:14:44;24.40;82.20
47414;DHT22;33163;0.000;0.000;2023-09-07T13:17:13;24.40;82.10
47414;DHT22;33163;0.000;0.000;2023-09-07T13:19:41;24.40;82.20
47414;DHT22;33163;0.000;0.000;2023-09-07T13:22:09;24.40;82.20
47414;DHT22;33163;0.000;0.000;2023-09-07T13:24:36;24.40;82.10
47414;DHT22;33163;0.000;0.000;2023-09-07T13:27:05;24.40;82.10
47414;DHT22;33163;0.000;0.000;2023-09-07T13:29:34;24.40;82.10
47414;DHT22;33163;0.000;0.000;2023-09-07T13:32:02;24.40;82.10
47414;DHT22;33163;0.000;0.000;2023-09-07T13:34:30;24.40;82.10
47414;DHT22;33163;0.000;0.000;2023-09-07T13:36:58;24.40;82.00
47414;DHT22;33163;0.000;0.000;2023-09-07T13:39:25;24.40;82.00
47414;DHT22;33163;0.000;0.000;2023-09-07T13:41:51;24.40;82.00
47414;DHT22;33163;0.000;0.000;2023-09-07T13:44:20;24.40;81.90
47414;DHT22;33163;0.000;0.000;2023-09-07T13:46:47;24.40;81.90
47414;DHT22;33163;0.000;0.000;2023-09-07T13:49:14;24.30;81.80
47414;DHT22;33163;0.000;0.000;2023-09-07T13:51:41;24.40;81.90
47414;DHT22;33163;0.000;0.000;2023-09-07T13:54:08;24.40;81.90
47414;DHT22;33163;0.000;0.000;2023-09-07T13:56:35;24.30;81.80
47414;DHT22;33163;0.000;0.000;2023-09-07T13:59:03;24.30;81.90
47414;DHT22;33163;0.000;0.000;2023-09-07T14:01:31;24.30;81.80
47414;DHT22;33163;0.000;0.000;2023-09-07T14:03:58;24.30;81.90
47414;DHT22;33163;0.000;0.000;2023-09-07T14:06:25;24.30;81.90
47414;DHT22;33163;0.000;0.000;2023-09-07T14:08:51;24.30;82.00
47414;DHT22;33163;0.000;0.000;2023-09-07T14:11:18;24.30;82.10
47414;DHT22;33163;0.000;0.000;2023-09-07T14:13:47;24.30;82.10
47414;DHT22;33163;0.000;0.000;2023-09-07T14:16:16;24.30;82.20
47414;DHT22;33163;0.000;0.000;2023-09-07T14:18:45;24.30;82.20
47414;DHT22;33163;0.000;0.000;2023-09-07T14:21:13;24.30;82.20
47414;DHT22;33163;0.000;0.000;2023-09-07T14:23:39;24.30;82.20
47414;DHT22;33163;0.000;0.000;2023-09-07T14:26:08;24.30;82.20
47414;DHT22;33163;0.000;0.000;2023-09-07T14:28:35;24.30;82.20
47414;DHT22;33163;0.000;0.000;2023-09-07T14:31:03;24.20;82.20
47414;DHT22;33163;0.000;0.000;2023-09-07T14:33:32;24.30;82.30
47414;DHT22;33163;0.000;0.000;2023-09-07T14:36:00;24.30;82.20
47414;DHT22;33163;0.000;0.000;2023-09-07T14:38:27;24.20;82.20
47414;DHT22;33163;0.000;0.000;2023-09-07T14:40:55;24.30;82.20
47414;DHT22;33163;0.000;0.000;2023-09-07T14:43:22;24.20;82.20
47414;DHT22;33163;0.000;0.000;2023-09-07T14:45:49;24.20;82.20
47414;DHT22;33163;0.000;0.000;2023-09-07T14:48:16;24.30;82.30
47414;DHT22;33163;0.000;0.000;2023-09-07T14:50:42;24.20;82.20
47414;DHT22;33163;0.000;0.000;2023-09-07T14:53:11;24.20;82.10
47414;DHT22;33163;0.000;0.000;2023-09-07T14:55:37;24.20;82.00
47414;DHT22;33163;0.000;0.000;2023-09-07T14:58:04;24.20;82.00
47414;DHT22;33163;0.000;0.000;2023-09-07T15:00:36;24.20;81.90
47414;DHT22;33163;0.000;0.000;2023-09-07T15:03:03;24.20;81.90
47414;DHT22;33163;0.000;0.000;2023-09-07T15:05:30;24.30;81.90
47414;DHT22;33163;0.000;0.000;2023-09-07T15:07:57;24.30;81.90
47414;DHT22;33163;0.000;0.000;2023-09-07T15:10:29;24.30;81.90
47414;DHT22;33163;0.000;0.000;2023-09-07T15:12:57;24.30;81.90
47414;DHT22;33163;0.000;0.000;2023-09-07T15:15:24;24.30;81.80
47414;DHT22;33163;0.000;0.000;2023-09-07T15:17:51;24.20;81.70
47414;DHT22;33163;0.000;0.000;2023-09-07T15:20:17;24.20;81.70
47414;DHT22;33163;0.000;0.000;2023-09-07T15:22:44;24.30;81.70
47414;DHT22;33163;0.000;0.000;2023-09-07T15:25:11;24.20;81.70
47414;DHT22;33163;0.000;0.000;2023-09-07T15:27:39;24.20;81.70
47414;DHT22;33163;0.000;0.000;2023-09-07T15:30:10;24.30;81.70
47414;DHT22;33163;0.000;0.000;2023-09-07T15:32:37;24.30;81.50
47414;DHT22;33163;0.000;0.000;2023-09-07T15:35:05;24.20;81.40
47414;DHT22;33163;0.000;0.000;2023-09-07T15:37:32;24.30;81.50
47414;DHT22;33163;0.000;0.000;2023-09-07T15:39:58;24.30;81.50
47414;DHT22;33163;0.000;0.000;2023-09-07T15:42:25;24.30;81.50
47414;DHT22;33163;0.000;0.000;2023-09-07T15:44:53;24.30;81.50
47414;DHT22;33163;0.000;0.000;2023-09-07T15:47:20;24.30;81.50